createdAt,value
2022-12-29T00:01:03.730Z,76.69
2022-12-29T00:03:31.808Z,76.90
2022-12-29T00:06:01.968Z,76.96
2022-12-29T00:08:41.977Z,77.23
2022-12-29T00:11:16.265Z,77.34
2022-12-29T00:14:03.156Z,77.40
2022-12-29T00:16:32.649Z,77.44
2022-12-29T00:19:01.245Z,77.51
2022-12-29T00:21:48.204Z,77.61
2022-12-29T00:24:27.493Z,77.55
2022-12-29T00:27:23.109Z,77.90
2022-12-29T00:30:09.800Z,78.23
2022-12-29T00:32:56.237Z,78.08
2022-12-29T00:35:24.360Z,78.00
2022-12-29T00:38:11.827Z,78.07
2022-12-29T00:40:58.280Z,78.07
2022-12-29T00:43:44.668Z,78.07
2022-12-29T00:46:19.709Z,77.94
2022-12-29T00:49:06.472Z,78.16
2022-12-29T00:51:34.474Z,78.12
2022-12-29T00:54:02.366Z,77.92
2022-12-29T00:56:30.434Z,77.90
2022-12-29T00:59:06.263Z,77.81
2022-12-29T01:01:36.086Z,77.56
2022-12-29T01:04:05.467Z,77.63
2022-12-29T01:06:34.149Z,77.69
2022-12-29T01:09:20.532Z,77.82
2022-12-29T01:12:45.803Z,78.08
2022-12-29T01:15:32.307Z,78.25
2022-12-29T01:18:00.276Z,78.26
2022-12-29T01:20:29.740Z,78.13
2022-12-29T01:22:58.309Z,78.04
2022-12-29T01:25:26.548Z,78.09
2022-12-29T01:27:54.505Z,78.61
2022-12-29T01:30:22.493Z,78.62
2022-12-29T01:32:50.465Z,78.84
2022-12-29T01:35:20.468Z,78.70
2022-12-29T01:37:48.474Z,78.88
2022-12-29T01:40:16.705Z,78.40
2022-12-29T01:42:46.120Z,78.55
2022-12-29T01:45:16.573Z,78.77
2022-12-29T01:47:51.378Z,78.66
2022-12-29T01:50:41.041Z,78.49
2022-12-29T01:53:16.856Z,78.68
2022-12-29T01:55:59.701Z,78.60
2022-12-29T01:58:35.039Z,78.40
2022-12-29T02:01:03.766Z,78.41
2022-12-29T02:03:33.709Z,78.50
2022-12-29T02:06:04.946Z,78.18
2022-12-29T02:08:32.953Z,78.51
2022-12-29T02:11:02.131Z,78.25
2022-12-29T02:13:30.966Z,78.00
2022-12-29T02:16:14.261Z,77.94
2022-12-29T02:18:56.154Z,78.09
2022-12-29T02:22:02.152Z,77.95
2022-12-29T02:24:44.773Z,77.10
2022-12-29T02:27:53.411Z,77.54
2022-12-29T02:30:31.351Z,77.36
2022-12-29T02:33:00.291Z,77.67
2022-12-29T02:35:50.039Z,77.82
2022-12-29T02:38:43.702Z,77.52
2022-12-29T02:41:24.922Z,77.53
2022-12-29T02:44:10.769Z,77.59
2022-12-29T02:46:52.776Z,77.95
2022-12-29T02:49:33.708Z,78.03
2022-12-29T02:52:07.953Z,77.97
2022-12-29T02:54:42.723Z,78.06
2022-12-29T02:57:30.724Z,77.99
2022-12-29T03:00:18.069Z,78.17
2022-12-29T03:02:56.863Z,77.93
2022-12-29T03:06:17.619Z,77.85
2022-12-29T03:09:00.295Z,77.94
2022-12-29T03:11:56.659Z,78.35
2022-12-29T03:14:43.575Z,78.35
2022-12-29T03:17:54.550Z,78.29
2022-12-29T03:20:28.501Z,78.37
2022-12-29T03:23:04.331Z,78.61
2022-12-29T03:25:41.269Z,79.18
2022-12-29T03:28:17.951Z,79.29
2022-12-29T03:30:48.285Z,79.07
2022-12-29T03:33:21.850Z,79.68
2022-12-29T03:35:53.500Z,79.53
2022-12-29T03:38:35.495Z,79.63
2022-12-29T03:41:08.978Z,79.66
2022-12-29T03:43:39.354Z,79.59
2022-12-29T03:46:07.343Z,79.75
2022-12-29T03:48:35.754Z,80.03
2022-12-29T03:51:05.102Z,79.88
2022-12-29T03:53:33.326Z,80.23
2022-12-29T03:56:01.901Z,80.37
2022-12-29T03:58:30.739Z,80.74
2022-12-29T04:01:11.047Z,80.72
2022-12-29T04:03:39.761Z,80.79
2022-12-29T04:06:08.743Z,80.32
2022-12-29T04:08:54.941Z,80.22
2022-12-29T04:11:25.189Z,80.20
2022-12-29T04:13:56.581Z,80.06
2022-12-29T04:16:26.516Z,80.09
2022-12-29T04:18:54.527Z,80.11
2022-12-29T04:21:22.459Z,79.92
2022-12-29T04:23:50.392Z,79.96
2022-12-29T04:26:18.732Z,80.12
2022-12-29T04:28:59.732Z,80.04
2022-12-29T04:31:44.655Z,80.05
2022-12-29T04:34:13.132Z,80.06
2022-12-29T04:36:41.109Z,80.15
2022-12-29T04:39:09.702Z,80.11
2022-12-29T04:41:39.574Z,80.08
2022-12-29T04:44:09.695Z,80.23
2022-12-29T04:46:40.503Z,80.17
2022-12-29T04:49:28.756Z,80.19
2022-12-29T04:52:16.991Z,80.17
2022-12-29T04:54:47.338Z,80.22
2022-12-29T04:57:19.529Z,80.08
2022-12-29T04:59:52.065Z,80.25
2022-12-29T05:02:20.251Z,80.57
2022-12-29T05:04:51.109Z,80.70
2022-12-29T05:07:20.186Z,80.60
2022-12-29T05:09:49.900Z,80.65
2022-12-29T05:12:18.013Z,80.71
2022-12-29T05:15:00.181Z,80.93
2022-12-29T05:18:24.474Z,81.54
2022-12-29T05:21:10.493Z,81.18
2022-12-29T05:23:39.373Z,81.19
2022-12-29T05:26:08.062Z,80.88
2022-12-29T05:29:08.419Z,81.06
2022-12-29T05:31:36.808Z,81.12
2022-12-29T05:34:06.338Z,81.00
2022-12-29T05:36:37.652Z,81.02
2022-12-29T05:39:08.771Z,81.04
2022-12-29T05:41:37.475Z,81.02
2022-12-29T05:44:17.387Z,80.99
2022-12-29T05:46:54.823Z,80.90
2022-12-29T05:49:47.157Z,80.88
2022-12-29T05:53:24.526Z,81.08
2022-12-29T05:55:52.717Z,81.05
2022-12-29T05:58:22.019Z,81.25
2022-12-29T06:00:50.096Z,81.34
2022-12-29T06:03:18.757Z,81.92
2022-12-29T06:05:47.550Z,81.82
2022-12-29T06:08:17.169Z,81.63
2022-12-29T06:10:45.727Z,81.93
2022-12-29T06:13:13.730Z,81.93
2022-12-29T06:15:44.908Z,81.97
2022-12-29T06:18:19.701Z,82.00
2022-12-29T06:20:49.496Z,82.19
2022-12-29T06:23:19.756Z,82.54
2022-12-29T06:25:49.754Z,82.52
2022-12-29T06:28:22.487Z,82.55
2022-12-29T06:30:50.719Z,82.52
2022-12-29T06:33:22.076Z,82.69
2022-12-29T06:35:50.673Z,82.67
2022-12-29T06:38:18.702Z,82.80
2022-12-29T06:40:47.039Z,82.71
2022-12-29T06:43:34.891Z,82.99
2022-12-29T06:46:25.074Z,83.40
2022-12-29T06:48:53.057Z,83.32
2022-12-29T06:51:21.084Z,83.38
2022-12-29T06:53:49.158Z,83.67
2022-12-29T06:56:17.159Z,84.06
2022-12-29T06:58:45.195Z,84.08
2022-12-29T07:01:13.223Z,84.12
2022-12-29T07:03:45.371Z,84.10
2022-12-29T07:06:13.337Z,84.25
2022-12-29T07:08:41.488Z,84.24
2022-12-29T07:11:09.885Z,84.27
2022-12-29T07:13:38.123Z,84.31
2022-12-29T07:16:08.007Z,84.05
2022-12-29T07:18:36.610Z,84.30
2022-12-29T07:21:05.079Z,84.39
2022-12-29T07:23:33.146Z,84.09
2022-12-29T07:26:13.459Z,84.04
2022-12-29T07:28:42.868Z,84.01
2022-12-29T07:31:16.936Z,83.86
2022-12-29T07:33:45.807Z,84.02
2022-12-29T07:36:15.277Z,83.93
2022-12-29T07:38:44.468Z,84.03
2022-12-29T07:41:13.847Z,83.42
2022-12-29T07:43:42.973Z,83.45
2022-12-29T07:46:54.252Z,83.49
2022-12-29T07:49:17.876Z,83.50
2022-12-29T07:51:45.828Z,83.13
2022-12-29T07:54:13.936Z,83.06
2022-12-29T07:56:41.893Z,82.94
2022-12-29T07:59:09.890Z,82.59
2022-12-29T08:01:38.223Z,81.60
2022-12-29T08:04:06.782Z,81.20
2022-12-29T08:06:35.072Z,81.19
2022-12-29T08:09:11.340Z,80.71
2022-12-29T08:11:43.885Z,81.44
2022-12-29T08:14:12.304Z,81.71
2022-12-29T08:16:40.651Z,82.00
2022-12-29T08:19:11.168Z,82.34
2022-12-29T08:21:39.565Z,82.35
2022-12-29T08:24:10.294Z,82.26
2022-12-29T08:26:38.447Z,82.21
2022-12-29T08:29:06.388Z,82.10
2022-12-29T08:31:34.402Z,82.05
2022-12-29T08:34:04.333Z,81.96
2022-12-29T08:36:32.792Z,81.94
2022-12-29T08:39:00.767Z,81.46
2022-12-29T08:41:28.853Z,81.13
2022-12-29T08:43:58.914Z,81.11
2022-12-29T08:46:28.097Z,81.32
2022-12-29T08:48:56.063Z,81.15
2022-12-29T08:51:25.093Z,80.50
2022-12-29T08:53:53.702Z,80.29
2022-12-29T08:56:22.411Z,80.42
2022-12-29T08:58:53.445Z,80.39
2022-12-29T09:01:23.296Z,80.28
2022-12-29T09:04:14.055Z,80.13
2022-12-29T09:06:40.906Z,80.09
2022-12-29T09:09:09.140Z,79.98
2022-12-29T09:11:37.135Z,79.54
2022-12-29T09:14:05.634Z,79.38
2022-12-29T09:16:34.635Z,79.34
2022-12-29T09:19:03.408Z,79.02
2022-12-29T09:21:31.870Z,78.55
2022-12-29T09:24:00.194Z,78.59
2022-12-29T09:26:28.120Z,76.15
2022-12-29T09:28:56.177Z,75.97
2022-12-29T09:31:24.194Z,75.65
2022-12-29T09:33:52.215Z,76.10
2022-12-29T09:36:20.230Z,75.75
2022-12-29T09:38:48.336Z,76.19
2022-12-29T09:41:30.868Z,75.33
2022-12-29T09:44:04.709Z,75.52
2022-12-29T09:46:41.251Z,75.20
2022-12-29T09:49:22.249Z,74.38
2022-12-29T09:51:54.239Z,75.14
2022-12-29T09:54:33.967Z,74.92
2022-12-29T09:57:02.125Z,73.70
2022-12-29T09:59:46.191Z,73.63
2022-12-29T10:02:25.028Z,73.44
2022-12-29T10:04:53.279Z,72.56
2022-12-29T10:08:03.694Z,73.19
2022-12-29T10:10:49.704Z,71.54
2022-12-29T10:13:48.196Z,72.49
2022-12-29T10:16:21.289Z,72.18
2022-12-29T10:19:06.280Z,71.62
2022-12-29T10:21:56.654Z,70.41
2022-12-29T10:24:27.766Z,69.84
2022-12-29T10:26:59.704Z,70.55
2022-12-29T10:29:40.814Z,69.07
2022-12-29T10:32:44.260Z,69.83
2022-12-29T10:35:20.275Z,68.37
2022-12-29T10:37:56.613Z,68.41
2022-12-29T10:40:30.938Z,68.33
2022-12-29T10:43:00.113Z,67.85
2022-12-29T10:45:31.692Z,66.86
2022-12-29T10:48:12.982Z,65.90
2022-12-29T10:50:44.117Z,66.76
2022-12-29T10:53:20.576Z,66.17
2022-12-29T10:55:48.691Z,66.19
2022-12-29T10:58:17.276Z,65.86
2022-12-29T11:00:54.657Z,65.97
2022-12-29T11:03:34.340Z,66.45
2022-12-29T11:06:10.083Z,65.90
2022-12-29T11:08:52.118Z,65.98
2022-12-29T11:11:27.263Z,65.28
2022-12-29T11:14:04.236Z,64.54
2022-12-29T11:16:35.353Z,64.36
2022-12-29T11:19:04.005Z,63.78
2022-12-29T11:21:34.365Z,63.85
2022-12-29T11:24:05.220Z,63.98
2022-12-29T11:26:35.255Z,63.85
2022-12-29T11:29:09.750Z,62.90
2022-12-29T11:31:42.583Z,62.73
2022-12-29T11:34:18.364Z,63.29
2022-12-29T11:36:47.457Z,63.67
2022-12-29T11:39:30.310Z,62.63
2022-12-29T11:41:59.317Z,62.06
2022-12-29T11:44:28.166Z,63.61
2022-12-29T11:46:56.301Z,63.85
2022-12-29T11:49:27.275Z,63.48
2022-12-29T11:51:58.635Z,64.58
2022-12-29T11:54:37.412Z,64.74
2022-12-29T11:57:17.211Z,64.76
2022-12-29T11:59:56.516Z,63.90
2022-12-29T12:02:45.564Z,63.53
2022-12-29T12:05:37.729Z,63.69
2022-12-29T12:08:26.159Z,63.69
2022-12-29T12:11:05.404Z,63.92
2022-12-29T12:13:44.675Z,64.28
2022-12-29T12:16:25.698Z,63.28
2022-12-29T12:18:56.437Z,62.99
2022-12-29T12:21:45.516Z,63.25
2022-12-29T12:24:32.169Z,63.86
2022-12-29T12:27:20.432Z,63.22
2022-12-29T12:30:04.146Z,62.76
2022-12-29T12:33:03.502Z,62.60
2022-12-29T12:35:45.254Z,62.71
2022-12-29T12:39:06.602Z,62.91
2022-12-29T12:41:46.938Z,62.52
2022-12-29T12:44:36.522Z,63.29
2022-12-29T12:47:04.502Z,63.42
2022-12-29T12:49:35.330Z,63.26
2022-12-29T12:52:14.517Z,63.12
2022-12-29T12:54:42.380Z,62.76
2022-12-29T12:57:34.210Z,62.80
2022-12-29T13:00:13.710Z,62.56
2022-12-29T13:03:00.905Z,62.72
2022-12-29T13:05:44.272Z,61.55
2022-12-29T13:08:39.098Z,61.16
2022-12-29T13:12:01.605Z,61.03
2022-12-29T13:14:43.703Z,59.94
2022-12-29T13:17:41.173Z,60.02
2022-12-29T13:20:27.761Z,60.93
2022-12-29T13:24:15.505Z,60.47
2022-12-29T13:26:46.221Z,60.46
2022-12-29T13:29:21.379Z,60.34
2022-12-29T13:32:13.752Z,60.41
2022-12-29T13:34:47.706Z,60.72
2022-12-29T13:37:26.985Z,60.54
2022-12-29T13:40:11.095Z,60.82
2022-12-29T13:42:39.563Z,60.73
2022-12-29T13:45:14.535Z,60.50
2022-12-29T13:48:05.555Z,60.70
2022-12-29T13:50:41.099Z,61.32
2022-12-29T13:53:31.600Z,61.21
2022-12-29T13:56:13.984Z,61.29
2022-12-29T13:58:51.579Z,60.24
2022-12-29T14:01:44.822Z,60.75
2022-12-29T14:04:24.401Z,59.83
2022-12-29T14:07:17.961Z,58.92
2022-12-29T14:09:52.876Z,59.31
2022-12-29T14:12:42.226Z,59.12
2022-12-29T14:15:10.282Z,59.39
2022-12-29T14:17:45.217Z,59.70
2022-12-29T14:20:24.392Z,60.25
2022-12-29T14:23:10.391Z,59.72
2022-12-29T14:26:01.522Z,58.95
2022-12-29T14:28:34.704Z,58.74
2022-12-29T14:31:26.698Z,58.91
2022-12-29T14:34:14.880Z,59.23
2022-12-29T14:37:03.834Z,59.76
2022-12-29T14:39:36.800Z,60.18
2022-12-29T14:42:15.367Z,60.27
2022-12-29T14:45:25.984Z,60.40
2022-12-29T14:47:55.172Z,60.70
2022-12-29T14:50:24.186Z,60.85
2022-12-29T14:53:03.956Z,61.22
2022-12-29T14:55:41.045Z,61.32
2022-12-29T14:58:29.595Z,61.34
2022-12-29T15:00:59.175Z,61.44
2022-12-29T15:03:34.148Z,61.29
2022-12-29T15:06:10.666Z,61.56
2022-12-29T15:08:51.021Z,61.79
2022-12-29T15:11:42.245Z,61.84
2022-12-29T15:14:40.711Z,62.06
2022-12-29T15:17:25.265Z,62.07
2022-12-29T15:19:54.545Z,62.71
2022-12-29T15:22:23.199Z,62.64
2022-12-29T15:24:53.233Z,62.53
2022-12-29T15:27:24.126Z,62.48
2022-12-29T15:30:00.847Z,62.66
2022-12-29T15:32:39.887Z,62.72
2022-12-29T15:35:31.124Z,63.08
2022-12-29T15:38:00.446Z,64.34
2022-12-29T15:40:31.840Z,65.00
2022-12-29T15:43:12.457Z,65.15
2022-12-29T15:45:40.515Z,65.35
2022-12-29T15:48:19.478Z,65.39
2022-12-29T15:50:48.118Z,65.64
2022-12-29T15:53:25.886Z,65.69
2022-12-29T15:55:58.347Z,65.36
2022-12-29T15:58:31.582Z,66.33
2022-12-29T16:01:01.766Z,67.79
2022-12-29T16:03:34.859Z,67.31
2022-12-29T16:06:26.310Z,67.43
2022-12-29T16:09:04.940Z,67.48
2022-12-29T16:11:34.942Z,67.40
2022-12-29T16:14:08.291Z,67.61
2022-12-29T16:16:42.617Z,67.59
2022-12-29T16:19:33.816Z,69.54
2022-12-29T16:22:04.381Z,69.14
2022-12-29T16:24:33.756Z,69.29
2022-12-29T16:27:09.049Z,68.89
2022-12-29T16:29:42.295Z,69.43
2022-12-29T16:32:29.597Z,69.86
2022-12-29T16:35:20.563Z,70.08
2022-12-29T16:38:08.204Z,69.76
2022-12-29T16:40:50.026Z,69.75
2022-12-29T16:43:42.979Z,70.11
2022-12-29T16:46:28.654Z,70.65
2022-12-29T16:48:58.149Z,70.79
2022-12-29T16:51:31.644Z,70.81
2022-12-29T16:54:01.573Z,70.70
2022-12-29T16:56:33.948Z,71.12
2022-12-29T16:59:20.565Z,71.14
2022-12-29T17:01:49.219Z,71.08
2022-12-29T17:04:17.444Z,71.67
2022-12-29T17:06:45.517Z,71.73
2022-12-29T17:09:31.949Z,72.26
2022-12-29T17:12:10.721Z,73.49
2022-12-29T17:14:48.818Z,73.20
2022-12-29T17:17:32.621Z,72.75
2022-12-29T17:20:24.956Z,73.34
2022-12-29T17:22:54.227Z,73.69
2022-12-29T17:25:31.832Z,74.06
2022-12-29T17:28:05.604Z,73.97
2022-12-29T17:30:36.205Z,73.93
2022-12-29T17:33:13.940Z,73.63
2022-12-29T17:35:42.206Z,73.35
2022-12-29T17:38:31.342Z,73.76
2022-12-29T17:40:59.700Z,73.51
2022-12-29T17:43:32.990Z,73.79
2022-12-29T17:46:07.093Z,74.50
2022-12-29T17:48:38.807Z,74.85
2022-12-29T17:51:06.967Z,74.89
2022-12-29T17:53:35.192Z,74.40
2022-12-29T17:56:03.348Z,73.86
2022-12-29T17:58:33.202Z,73.94
2022-12-29T18:01:03.271Z,73.93
2022-12-29T18:03:35.061Z,74.34
2022-12-29T18:06:08.482Z,74.23
2022-12-29T18:08:38.805Z,74.17
2022-12-29T18:11:21.618Z,74.39
2022-12-29T18:13:50.189Z,74.39
2022-12-29T18:16:18.448Z,74.53
2022-12-29T18:18:51.730Z,74.47
2022-12-29T18:21:33.939Z,74.46
2022-12-29T18:24:02.442Z,74.30
2022-12-29T18:26:35.935Z,75.03
2022-12-29T18:29:03.930Z,76.07
2022-12-29T18:31:34.233Z,75.68
2022-12-29T18:34:12.800Z,75.86
2022-12-29T18:36:40.878Z,75.64
2022-12-29T18:39:08.799Z,75.74
2022-12-29T18:41:37.361Z,76.08
2022-12-29T18:44:05.583Z,75.99
2022-12-29T18:46:33.610Z,75.70
2022-12-29T18:49:01.727Z,76.96
2022-12-29T18:51:30.115Z,79.05
2022-12-29T18:54:48.567Z,79.73
2022-12-29T18:57:17.803Z,78.97
2022-12-29T18:59:46.202Z,78.46
2022-12-29T19:02:17.776Z,78.28
2022-12-29T19:04:48.925Z,78.10
2022-12-29T19:07:20.979Z,78.02
2022-12-29T19:09:48.925Z,78.32
2022-12-29T19:12:22.228Z,78.34
2022-12-29T19:14:53.234Z,77.98
2022-12-29T19:17:43.138Z,78.04
2022-12-29T19:20:26.617Z,78.18
2022-12-29T19:22:56.283Z,77.86
2022-12-29T19:25:25.139Z,78.14
2022-12-29T19:27:53.528Z,78.15
2022-12-29T19:30:21.748Z,78.08
2022-12-29T19:32:54.978Z,78.38
2022-12-29T19:35:24.417Z,79.02
2022-12-29T19:37:53.045Z,79.10
2022-12-29T19:40:23.683Z,78.61
2022-12-29T19:42:52.123Z,79.02
2022-12-29T19:45:20.926Z,78.79
2022-12-29T19:47:52.506Z,78.69
2022-12-29T19:50:25.499Z,78.65
2022-12-29T19:53:05.925Z,78.98
2022-12-29T19:55:34.498Z,79.63
2022-12-29T19:58:02.588Z,79.83
2022-12-29T20:00:30.897Z,79.96
2022-12-29T20:02:59.233Z,80.30
2022-12-29T20:05:27.496Z,80.11
2022-12-29T20:07:55.413Z,80.29
2022-12-29T20:10:23.472Z,80.04
2022-12-29T20:12:51.384Z,81.00
2022-12-29T20:15:19.982Z,81.33
2022-12-29T20:18:15.749Z,81.61
2022-12-29T20:20:36.152Z,81.24
2022-12-29T20:23:04.235Z,80.92
2022-12-29T20:25:48.629Z,81.07
2022-12-29T20:28:17.153Z,80.79
2022-12-29T20:30:45.516Z,80.80
2022-12-29T20:33:13.739Z,80.69
2022-12-29T20:35:41.721Z,80.44
2022-12-29T20:38:09.636Z,80.71
2022-12-29T20:40:44.098Z,80.17
2022-12-29T20:43:15.602Z,80.61
2022-12-29T20:45:43.796Z,80.62
2022-12-29T20:48:11.944Z,81.06
2022-12-29T20:50:40.319Z,81.04
2022-12-29T20:53:08.391Z,80.63
2022-12-29T20:55:40.827Z,80.72
2022-12-29T20:58:25.418Z,81.09
2022-12-29T21:00:54.597Z,80.67
2022-12-29T21:03:23.255Z,80.16
2022-12-29T21:05:52.688Z,80.60
2022-12-29T21:08:22.099Z,80.61
2022-12-29T21:10:51.108Z,80.37
2022-12-29T21:13:19.370Z,80.50
2022-12-29T21:15:48.110Z,80.24
2022-12-29T21:18:16.105Z,80.18
2022-12-29T21:20:44.328Z,80.20
2022-12-29T21:23:15.744Z,80.40
2022-12-29T21:25:44.171Z,80.52
2022-12-29T21:28:12.392Z,80.76
2022-12-29T21:30:40.743Z,80.74
2022-12-29T21:33:08.804Z,80.72
2022-12-29T21:35:38.884Z,80.48
2022-12-29T21:38:07.964Z,80.80
2022-12-29T21:40:37.461Z,80.78
2022-12-29T21:43:06.295Z,81.38
2022-12-29T21:45:34.489Z,81.76
2022-12-29T21:48:23.610Z,81.80
2022-12-29T21:51:12.730Z,81.79
2022-12-29T21:53:43.839Z,81.64
2022-12-29T21:56:14.734Z,81.41
2022-12-29T21:59:03.580Z,81.64
2022-12-29T22:01:53.063Z,81.51
2022-12-29T22:04:42.767Z,81.39
2022-12-29T22:07:31.383Z,81.67
2022-12-29T22:10:17.961Z,81.18
2022-12-29T22:12:57.950Z,81.32
2022-12-29T22:15:27.896Z,81.07
2022-12-29T22:17:56.220Z,81.54
2022-12-29T22:20:27.186Z,81.84
2022-12-29T22:22:55.770Z,82.43
2022-12-29T22:25:24.242Z,82.54
2022-12-29T22:27:58.541Z,82.72
2022-12-29T22:30:28.383Z,82.68
2022-12-29T22:32:59.171Z,82.71
2022-12-29T22:35:27.781Z,83.09
2022-12-29T22:37:55.740Z,83.38
2022-12-29T22:40:24.313Z,84.22
2022-12-29T22:42:52.441Z,83.86
2022-12-29T22:45:20.522Z,84.32
2022-12-29T22:47:48.427Z,84.87
2022-12-29T22:50:16.486Z,84.00
2022-12-29T22:52:44.519Z,84.82
2022-12-29T22:55:12.494Z,84.21
2022-12-29T22:57:40.593Z,84.21
2022-12-29T23:00:09.328Z,84.63
2022-12-29T23:02:37.677Z,85.38
2022-12-29T23:05:06.814Z,85.28
2022-12-29T23:07:35.891Z,83.91
2022-12-29T23:10:05.283Z,83.92
2022-12-29T23:12:33.294Z,83.75
2022-12-29T23:15:01.394Z,83.78
2022-12-29T23:17:29.418Z,83.75
2022-12-29T23:19:57.366Z,83.59
2022-12-29T23:22:25.355Z,83.14
2022-12-29T23:24:53.292Z,83.47
2022-12-29T23:27:21.198Z,83.53
2022-12-29T23:29:49.176Z,83.37
2022-12-29T23:32:17.185Z,83.77
2022-12-29T23:34:45.163Z,83.89
2022-12-29T23:37:13.265Z,83.67
2022-12-29T23:39:41.223Z,84.08
2022-12-29T23:42:09.085Z,84.46
2022-12-29T23:44:37.069Z,84.15
2022-12-29T23:47:05.052Z,84.36
2022-12-29T23:49:33.159Z,84.52
2022-12-29T23:52:01.349Z,84.65
2022-12-29T23:54:29.288Z,84.49
2022-12-29T23:56:57.345Z,84.47
2022-12-29T23:59:25.364Z,84.71
